24°C Temp
9°C Dewpoint
39% Humidity
Temperature
26 KM/H
16 MPH
14 KTS
110°
East South
East

Wind Speed
Clear
Conditions
Pressure 1008.92 (hPa) - 29.79 (in)
Visibility 6.2 (mi) - 10.0 (km)

Current Conditions
UKLI
Location 9(km)
Metar :UKLI 121030Z 11007MPS 080V150 CAVOK 24/09 Q1009 R10/090070 NOSIG
Wed 12th May 13:30 pm

Airport